Comandante Luis Piedra Buena, Argentina
Current Conditions -  °F | °C
As of 5:00 PM on Saturday 25 Oct 2014 (Local Time) from SAWG Reporting Station
Clear Clear  
Wind Chill: 66°   Ceiling: Unl
Heat Index: 66°   Visibility: 6mi
Dew Point: 34°   Wind: 22mph
Humidity: 30%   Direction: 250°WSW
Pressure: 29.38"   Gusts: NA
Location:  49.98°S, 68.9°W
Report Text: SAWG 252000Z 25019KT CAVOK 19/01 Q0995
Loading
Personal Weather Stations






























Interactive Weather Map
Tropical Storm Tracking
New forecast layout! Learn more

10-Day Weather Forecast

Advertisements
Track Severe Weather on mobile